createdAt,value
2017-01-13T00:03:26.581Z,0
2017-01-13T00:08:26.911Z,0
2017-01-13T00:13:26.115Z,0
2017-01-13T00:18:26.081Z,0
2017-01-13T00:23:26.431Z,0
2017-01-13T00:28:26.403Z,0
2017-01-13T00:33:26.375Z,0
2017-01-13T00:38:25.547Z,0
2017-01-13T00:43:26.302Z,0
2017-01-13T00:48:26.641Z,0
2017-01-13T00:53:26.229Z,0
2017-01-13T00:58:26.589Z,0
2017-01-13T01:03:26.167Z,0
2017-01-13T01:08:26.511Z,0
2017-01-13T01:13:26.088Z,0
2017-01-13T01:18:25.668Z,0
2017-01-13T01:23:26.408Z,0
2017-01-13T01:28:25.988Z,0
2017-01-13T01:33:25.955Z,0
2017-01-13T01:38:25.915Z,0
2017-01-13T01:43:26.277Z,0
2017-01-13T01:48:26.044Z,0
2017-01-13T01:53:25.844Z,0
2017-01-13T01:58:25.778Z,0
2017-01-13T02:03:26.129Z,0
2017-01-13T02:08:26.095Z,0
2017-01-13T02:13:25.707Z,0
2017-01-13T02:18:25.640Z,0
2017-01-13T02:23:25.990Z,0
2017-01-13T02:28:25.574Z,0
2017-01-13T02:33:25.924Z,0
2017-01-13T02:38:25.894Z,0
2017-01-13T02:43:25.864Z,0
2017-01-13T02:48:25.818Z,0
2017-01-13T02:53:25.402Z,0
2017-01-13T02:58:25.370Z,0
2017-01-13T03:03:25.711Z,0
2017-01-13T03:08:25.680Z,0
2017-01-13T03:13:25.254Z,0
2017-01-13T03:18:25.603Z,0
2017-01-13T03:23:25.572Z,0
2017-01-13T03:28:25.532Z,0
2017-01-13T03:33:25.494Z,0
2017-01-13T03:38:25.464Z,0
2017-01-13T03:43:25.422Z,0
2017-01-13T03:48:24.622Z,0
2017-01-13T03:53:24.578Z,0
2017-01-13T03:58:24.958Z,0
2017-01-13T04:03:25.288Z,0
2017-01-13T04:08:24.860Z,0
2017-01-13T04:13:24.838Z,0
2017-01-13T04:18:24.792Z,0
2017-01-13T04:23:24.757Z,0
2017-01-13T04:28:25.095Z,0
2017-01-13T04:33:24.290Z,0
2017-01-13T04:38:24.282Z,0
2017-01-13T04:43:24.986Z,0
2017-01-13T04:48:24.962Z,0
2017-01-13T04:53:24.541Z,0
2017-01-13T04:58:24.499Z,0
2017-01-13T05:03:24.452Z,0
2017-01-13T05:08:24.423Z,0
2017-01-13T05:13:23.987Z,0
2017-01-13T05:18:24.733Z,0
2017-01-13T05:23:24.300Z,0
2017-01-13T05:28:24.650Z,0
2017-01-13T05:33:24.607Z,0
2017-01-13T05:38:24.568Z,0
2017-01-13T05:43:23.791Z,0
2017-01-13T05:48:24.491Z,0
2017-01-13T05:53:24.465Z,0
2017-01-13T05:58:24.043Z,0
2017-01-13T06:03:24.381Z,0
2017-01-13T06:08:23.569Z,0
2017-01-13T06:13:23.925Z,0
2017-01-13T06:18:23.107Z,0
2017-01-13T06:23:23.483Z,0
2017-01-13T06:28:23.797Z,0
2017-01-13T06:33:24.144Z,0
2017-01-13T06:38:24.114Z,0
2017-01-13T06:43:23.680Z,0
2017-01-13T06:48:24.044Z,0
2017-01-13T06:53:23.626Z,0
2017-01-13T06:58:22.855Z,0
2017-01-13T07:03:23.584Z,0
2017-01-13T07:08:23.552Z,0
2017-01-13T07:13:23.144Z,0
2017-01-13T07:18:23.892Z,0
2017-01-13T07:23:23.490Z,0
2017-01-13T07:28:23.482Z,0
2017-01-13T07:33:23.439Z,5
2017-01-13T07:38:23.421Z,10
2017-01-13T07:43:23.783Z,10
2017-01-13T07:48:23.373Z,20
2017-01-13T07:53:23.349Z,10
2017-01-13T07:58:22.935Z,30
2017-01-13T08:03:23.692Z,40
2017-01-13T08:08:23.276Z,30
2017-01-13T08:13:23.638Z,40
2017-01-13T08:18:23.630Z,50
2017-01-13T08:23:23.199Z,45
2017-01-13T08:28:23.558Z,75
2017-01-13T08:33:22.766Z,105
2017-01-13T08:38:22.738Z,70
2017-01-13T08:43:23.098Z,60
2017-01-13T08:48:23.095Z,105
2017-01-13T08:53:23.429Z,160
2017-01-13T08:58:22.632Z,180
2017-01-13T09:03:22.991Z,145
2017-01-13T09:08:22.577Z,155
2017-01-13T09:13:22.949Z,170
2017-01-13T09:18:23.303Z,180
2017-01-13T09:23:22.111Z,185
2017-01-13T09:28:23.279Z,180
2017-01-13T09:33:22.452Z,160
2017-01-13T09:38:22.819Z,175
2017-01-13T09:43:22.417Z,210
2017-01-13T09:48:22.769Z,225
2017-01-13T09:53:23.159Z,240
2017-01-13T09:58:22.721Z,375
2017-01-13T10:03:22.699Z,265
2017-01-13T10:08:21.895Z,255
2017-01-13T10:13:22.271Z,325
2017-01-13T10:18:22.253Z,270
2017-01-13T10:23:22.259Z,290
2017-01-13T10:28:22.590Z,315
2017-01-13T10:33:22.190Z,425
2017-01-13T10:38:22.558Z,375
2017-01-13T10:43:22.568Z,425
2017-01-13T10:48:22.515Z,370
2017-01-13T10:53:22.502Z,375
2017-01-13T10:58:22.479Z,525
2017-01-13T11:03:22.857Z,340
2017-01-13T11:08:22.853Z,280
2017-01-13T11:13:23.025Z,390
2017-01-13T11:18:22.415Z,655
2017-01-13T11:23:22.400Z,1720
2017-01-13T11:28:22.408Z,3040
2017-01-13T11:33:22.407Z,3390
2017-01-13T11:38:22.793Z,3485
2017-01-13T11:43:22.063Z,930
2017-01-13T11:48:22.833Z,3625
2017-01-13T11:53:22.832Z,3720
2017-01-13T11:58:22.067Z,3460
2017-01-13T12:03:22.858Z,2390
2017-01-13T12:08:22.085Z,1830
2017-01-13T12:13:22.475Z,1370
2017-01-13T12:18:22.503Z,1175
2017-01-13T12:23:22.487Z,1420
2017-01-13T12:28:22.490Z,2130
2017-01-13T12:33:22.086Z,500
2017-01-13T12:38:22.872Z,720
2017-01-13T12:43:22.086Z,1335
2017-01-13T12:48:22.465Z,825
2017-01-13T12:53:22.462Z,440
2017-01-13T12:58:21.286Z,645
2017-01-13T13:03:22.442Z,370
2017-01-13T13:08:22.466Z,340
2017-01-13T13:13:22.426Z,365
2017-01-13T13:18:22.404Z,275
2017-01-13T13:23:21.998Z,300
2017-01-13T13:28:22.768Z,345
2017-01-13T13:33:21.977Z,275
2017-01-13T13:38:22.734Z,280
2017-01-13T13:43:22.738Z,355
2017-01-13T13:48:22.321Z,340
2017-01-13T13:53:22.694Z,335
2017-01-13T13:58:22.286Z,290
2017-01-13T14:03:21.501Z,270
2017-01-13T14:08:21.861Z,250
2017-01-13T14:13:22.231Z,265
2017-01-13T14:18:22.620Z,380
2017-01-13T14:23:22.590Z,240
2017-01-13T14:28:22.183Z,195
2017-01-13T14:33:21.806Z,185
2017-01-13T14:38:22.152Z,185
2017-01-13T14:43:22.534Z,185
2017-01-13T14:48:21.748Z,150
2017-01-13T14:53:22.110Z,125
2017-01-13T14:58:22.484Z,105
2017-01-13T15:03:22.512Z,80
2017-01-13T15:08:22.460Z,55
2017-01-13T15:13:22.030Z,50
2017-01-13T15:18:22.413Z,45
2017-01-13T15:23:21.608Z,40
2017-01-13T15:28:21.596Z,35
2017-01-13T15:33:21.966Z,25
2017-01-13T15:38:22.316Z,15
2017-01-13T15:43:21.908Z,10
2017-01-13T15:48:21.909Z,10
2017-01-13T15:53:22.279Z,5
2017-01-13T15:58:21.853Z,0
2017-01-13T16:03:22.455Z,0
2017-01-13T16:08:21.825Z,0
2017-01-13T16:13:21.791Z,0
2017-01-13T16:18:21.442Z,0
2017-01-13T16:23:20.972Z,0
2017-01-13T16:28:21.729Z,0
2017-01-13T16:33:21.327Z,0
2017-01-13T16:38:21.692Z,0
2017-01-13T16:43:21.661Z,0
2017-01-13T16:48:21.255Z,0
2017-01-13T16:53:22.223Z,0
2017-01-13T16:58:21.993Z,0
2017-01-13T17:03:21.199Z,0
2017-01-13T17:08:21.944Z,0
2017-01-13T17:13:21.938Z,0
2017-01-13T17:18:21.509Z,0
2017-01-13T17:23:21.113Z,0
2017-01-13T17:28:21.850Z,0
2017-01-13T17:33:21.444Z,0
2017-01-13T17:38:21.417Z,0
2017-01-13T17:43:21.784Z,0
2017-01-13T17:48:21.402Z,0
2017-01-13T17:53:20.562Z,0
2017-01-13T17:58:21.316Z,0
2017-01-13T18:03:21.294Z,0
2017-01-13T18:08:21.286Z,0
2017-01-13T18:13:21.232Z,0
2017-01-13T18:18:21.213Z,0
2017-01-13T18:23:21.300Z,0
2017-01-13T18:28:20.786Z,0
2017-01-13T18:33:21.154Z,0
2017-01-13T18:38:21.122Z,0
2017-01-13T18:43:20.316Z,0
2017-01-13T18:48:20.683Z,0
2017-01-13T18:53:21.056Z,0
2017-01-13T18:58:20.247Z,0
2017-01-13T19:03:21.394Z,0
2017-01-13T19:08:21.004Z,0
2017-01-13T19:13:20.966Z,0
2017-01-13T19:18:21.335Z,0
2017-01-13T19:23:20.569Z,0
2017-01-13T19:28:20.517Z,0
2017-01-13T19:33:20.509Z,0
2017-01-13T19:38:21.326Z,0
2017-01-13T19:43:20.556Z,0
2017-01-13T19:48:21.266Z,0
2017-01-13T19:53:21.472Z,0
2017-01-13T19:58:21.567Z,0
2017-01-13T20:03:20.666Z,0
2017-01-13T20:08:20.765Z,0
2017-01-13T20:13:21.573Z,0
2017-01-13T20:18:21.343Z,0
2017-01-13T20:23:20.730Z,0
2017-01-13T20:28:20.840Z,0
2017-01-13T20:33:20.424Z,0
2017-01-13T20:38:21.090Z,0
2017-01-13T20:43:20.580Z,0
2017-01-13T20:48:20.672Z,0
2017-01-13T20:53:21.314Z,0
2017-01-13T20:58:19.832Z,0
2017-01-13T21:03:20.266Z,0
2017-01-13T21:08:20.983Z,0
2017-01-13T21:13:20.487Z,0
2017-01-13T21:18:20.492Z,0
2017-01-13T21:23:20.386Z,0
2017-01-13T21:28:20.774Z,0
2017-01-13T21:33:20.324Z,0
2017-01-13T21:38:19.151Z,0
2017-01-13T21:43:19.902Z,0
2017-01-13T21:48:20.652Z,0
2017-01-13T21:53:19.836Z,0
2017-01-13T21:58:19.806Z,0
2017-01-13T22:03:20.172Z,0
2017-01-13T22:08:20.145Z,0
2017-01-13T22:13:19.726Z,0
2017-01-13T22:18:19.700Z,0
2017-01-13T22:23:19.686Z,0
2017-01-13T22:28:20.054Z,0
2017-01-13T22:33:20.015Z,0
2017-01-13T22:38:20.376Z,0
2017-01-13T22:43:19.964Z,0
2017-01-13T22:48:20.322Z,0
2017-01-13T22:53:19.898Z,0
2017-01-13T22:58:20.264Z,0
2017-01-13T23:03:20.230Z,0
2017-01-13T23:08:20.194Z,0
2017-01-13T23:13:19.780Z,0
2017-01-13T23:18:18.968Z,0
2017-01-13T23:23:19.720Z,0
2017-01-13T23:28:19.884Z,0
2017-01-13T23:33:20.034Z,0
2017-01-13T23:38:19.620Z,0
2017-01-13T23:43:19.184Z,0
2017-01-13T23:48:19.544Z,0
2017-01-13T23:53:19.125Z,0
2017-01-13T23:58:19.864Z,0
